createdAt,value
2017-12-28T00:00:07.154Z,3.66
2017-12-28T00:01:09.772Z,3.65
2017-12-28T00:02:09.340Z,3.66
2017-12-28T00:03:07.420Z,3.65
2017-12-28T00:04:07.715Z,3.65
2017-12-28T00:05:07.876Z,3.65
2017-12-28T00:06:05.859Z,3.66
2017-12-28T00:07:07.672Z,3.67
2017-12-28T00:08:07.912Z,3.65
2017-12-28T00:09:07.895Z,3.66
2017-12-28T00:10:07.963Z,3.66
2017-12-28T00:11:08.225Z,3.67
2017-12-28T00:12:07.785Z,3.66
2017-12-28T00:13:07.864Z,3.67
2017-12-28T00:14:08.333Z,3.69
2017-12-28T00:15:07.886Z,3.67
2017-12-28T00:16:07.841Z,3.69
2017-12-28T00:17:07.990Z,3.69
2017-12-28T00:18:08.661Z,3.69
2017-12-28T00:19:07.940Z,3.67
2017-12-28T00:20:07.514Z,3.67
2017-12-28T00:21:07.273Z,3.69
2017-12-28T00:22:06.731Z,3.69
2017-12-28T00:23:07.799Z,3.69
2017-12-28T00:24:08.125Z,3.66
2017-12-28T00:25:08.131Z,3.66
2017-12-28T00:26:08.137Z,3.67
2017-12-28T00:27:08.075Z,3.69
2017-12-28T00:28:08.256Z,3.69
2017-12-28T00:29:07.931Z,3.69
2017-12-28T00:30:07.940Z,3.7
2017-12-28T00:31:07.864Z,3.67
2017-12-28T00:32:07.530Z,3.7
2017-12-28T00:33:07.500Z,3.72
2017-12-28T00:34:07.482Z,3.7
2017-12-28T00:35:07.422Z,3.72
2017-12-28T00:36:07.229Z,3.7
2017-12-28T00:37:08.047Z,3.72
2017-12-28T00:38:07.937Z,3.73
2017-12-28T00:39:07.790Z,3.72
2017-12-28T00:40:07.780Z,3.7
2017-12-28T00:41:07.709Z,3.73
2017-12-28T00:42:07.461Z,3.74
2017-12-28T00:43:07.569Z,3.73
2017-12-28T00:44:07.550Z,3.74
2017-12-28T00:45:07.734Z,3.73
2017-12-28T00:46:07.982Z,3.74
2017-12-28T00:47:07.554Z,3.74
2017-12-28T00:48:07.670Z,3.76
2017-12-28T00:49:08.030Z,3.74
2017-12-28T00:50:07.790Z,3.77
2017-12-28T00:51:08.018Z,3.76
2017-12-28T00:52:08.305Z,3.77
2017-12-28T00:53:07.581Z,3.76
2017-12-28T00:54:07.811Z,3.79
2017-12-28T00:55:07.843Z,3.77
2017-12-28T00:56:09.065Z,3.77
2017-12-28T00:57:08.188Z,3.79
2017-12-28T00:58:08.308Z,3.77
2017-12-28T00:59:07.878Z,3.77
2017-12-28T01:00:08.057Z,3.79
2017-12-28T01:01:08.096Z,3.77
2017-12-28T01:02:08.489Z,3.79
2017-12-28T01:03:07.960Z,3.8
2017-12-28T01:04:08.365Z,3.8
2017-12-28T01:05:07.253Z,3.83
2017-12-28T01:06:08.445Z,3.83
2017-12-28T01:07:07.770Z,3.84
2017-12-28T01:08:08.073Z,3.83
2017-12-28T01:09:06.084Z,3.86
2017-12-28T01:10:07.465Z,3.83
2017-12-28T01:11:07.903Z,3.87
2017-12-28T01:12:06.908Z,3.86
2017-12-28T01:13:05.936Z,3.86
2017-12-28T01:14:09.398Z,3.87
2017-12-28T01:15:07.770Z,3.87
2017-12-28T01:16:07.586Z,3.87
2017-12-28T01:17:08.009Z,3.87
2017-12-28T01:18:07.997Z,3.86
2017-12-28T01:19:09.057Z,3.89
2017-12-28T01:20:08.215Z,3.89
2017-12-28T01:21:07.349Z,3.89
2017-12-28T01:22:07.458Z,3.86
2017-12-28T01:23:06.998Z,3.9
2017-12-28T01:24:08.791Z,3.89
2017-12-28T01:25:07.572Z,3.9
2017-12-28T01:26:07.780Z,3.89
2017-12-28T01:27:06.028Z,3.89
2017-12-28T01:28:08.103Z,3.89
2017-12-28T01:29:07.262Z,3.9
2017-12-28T01:30:07.483Z,3.89
2017-12-28T01:31:07.760Z,3.9
2017-12-28T01:32:10.015Z,3.89
2017-12-28T01:33:07.697Z,3.87
2017-12-28T01:34:07.870Z,3.9
2017-12-28T01:35:07.345Z,3.89
2017-12-28T01:36:09.140Z,3.9
2017-12-28T01:37:07.546Z,3.9
2017-12-28T01:38:07.516Z,3.89
2017-12-28T01:39:07.522Z,3.91
2017-12-28T01:40:08.947Z,3.91
2017-12-28T01:41:08.556Z,3.9
2017-12-28T01:42:07.664Z,3.9
2017-12-28T01:43:08.187Z,3.9
2017-12-28T01:44:08.225Z,3.89
2017-12-28T01:45:08.496Z,3.9
2017-12-28T01:46:08.602Z,3.89
2017-12-28T01:47:08.245Z,3.89
2017-12-28T01:48:08.445Z,3.91
2017-12-28T01:49:08.647Z,3.89
2017-12-28T01:50:07.306Z,3.87
2017-12-28T01:51:07.886Z,3.89
2017-12-28T01:52:08.207Z,3.89
2017-12-28T01:53:08.175Z,3.87
2017-12-28T01:54:08.132Z,3.9
2017-12-28T01:55:08.450Z,3.9
2017-12-28T01:56:07.790Z,3.89
2017-12-28T01:57:08.450Z,3.9
2017-12-28T01:58:07.882Z,3.89
2017-12-28T01:59:08.054Z,3.9
2017-12-28T02:00:08.296Z,3.9
2017-12-28T02:01:10.263Z,3.89
2017-12-28T02:02:08.425Z,3.89
2017-12-28T02:03:08.829Z,3.89
2017-12-28T02:04:08.287Z,3.87
2017-12-28T02:05:08.721Z,3.89
2017-12-28T02:06:08.118Z,3.89
2017-12-28T02:07:07.627Z,3.9
2017-12-28T02:08:07.748Z,3.9
2017-12-28T02:09:07.970Z,3.89
2017-12-28T02:10:09.202Z,3.89
2017-12-28T02:11:08.159Z,3.89
2017-12-28T02:12:07.359Z,3.89
2017-12-28T02:13:08.848Z,3.86
2017-12-28T02:14:08.587Z,3.89
2017-12-28T02:15:07.729Z,3.87
2017-12-28T02:16:07.961Z,3.86
2017-12-28T02:17:07.321Z,3.86
2017-12-28T02:18:08.091Z,3.84
2017-12-28T02:19:07.409Z,3.86
2017-12-28T02:20:07.574Z,3.86
2017-12-28T02:21:07.229Z,3.86
2017-12-28T02:22:06.940Z,3.83
2017-12-28T02:23:07.209Z,3.82
2017-12-28T02:24:08.076Z,3.84
2017-12-28T02:25:06.107Z,3.83
2017-12-28T02:26:07.697Z,3.82
2017-12-28T02:27:07.829Z,3.83
2017-12-28T02:28:05.944Z,3.82
2017-12-28T02:29:06.010Z,3.8
2017-12-28T02:30:06.029Z,3.79
2017-12-28T02:31:07.611Z,3.8
2017-12-28T02:32:07.676Z,3.79
2017-12-28T02:33:07.754Z,3.76
2017-12-28T02:34:05.843Z,3.79
2017-12-28T02:35:05.877Z,3.79
2017-12-28T02:36:06.040Z,3.76
2017-12-28T02:37:06.127Z,3.76
2017-12-28T02:38:07.774Z,3.76
2017-12-28T02:39:07.766Z,3.76
2017-12-28T02:40:07.407Z,3.74
2017-12-28T02:43:07.071Z,3.73
2017-12-28T02:44:06.955Z,3.72
2017-12-28T02:45:05.998Z,3.72
2017-12-28T02:46:06.143Z,3.73
2017-12-28T02:47:07.579Z,3.73
2017-12-28T02:48:07.570Z,3.73
2017-12-28T02:49:07.736Z,3.72
2017-12-28T02:50:07.412Z,3.7
2017-12-28T02:51:06.929Z,3.72
2017-12-28T02:52:05.918Z,3.69
2017-12-28T02:53:07.416Z,3.72
2017-12-28T02:54:07.145Z,3.69
2017-12-28T02:55:07.009Z,3.7
2017-12-28T02:56:06.116Z,3.7
2017-12-28T02:57:07.320Z,3.69
2017-12-28T02:58:07.465Z,3.7
2017-12-28T02:59:07.040Z,3.69
2017-12-28T03:00:06.134Z,3.69
2017-12-28T03:01:07.559Z,3.7
2017-12-28T03:02:07.205Z,3.72
2017-12-28T03:03:07.017Z,3.7
2017-12-28T03:04:06.970Z,3.7
2017-12-28T03:05:05.967Z,3.66
2017-12-28T03:06:06.077Z,3.67
2017-12-28T03:07:06.020Z,3.7
2017-12-28T03:08:06.078Z,3.66
2017-12-28T03:09:07.528Z,3.67
2017-12-28T03:10:07.341Z,3.69
2017-12-28T03:11:07.070Z,3.66
2017-12-28T03:12:08.013Z,3.65
2017-12-28T03:13:07.387Z,3.67
2017-12-28T03:14:07.134Z,3.65
2017-12-28T03:15:08.479Z,3.65
2017-12-28T03:16:07.888Z,3.66
2017-12-28T03:17:07.753Z,3.66
2017-12-28T03:18:07.609Z,3.65
2017-12-28T03:19:07.551Z,3.65
2017-12-28T03:20:07.328Z,3.62
2017-12-28T03:21:08.151Z,3.62
2017-12-28T03:22:07.646Z,3.62
2017-12-28T03:23:07.616Z,3.63
2017-12-28T03:24:07.898Z,3.62
2017-12-28T03:25:07.708Z,3.61
2017-12-28T03:26:07.791Z,3.61
2017-12-28T03:27:07.464Z,3.62
2017-12-28T03:28:07.379Z,3.62
2017-12-28T03:29:07.037Z,3.61
2017-12-28T03:30:07.759Z,3.59
2017-12-28T03:31:07.686Z,3.59
2017-12-28T03:32:07.408Z,3.61
2017-12-28T03:33:07.604Z,3.58
2017-12-28T03:34:07.798Z,3.58
2017-12-28T03:35:07.972Z,3.56
2017-12-28T03:36:08.325Z,3.56
2017-12-28T03:37:07.746Z,3.58
2017-12-28T03:38:07.397Z,3.58
2017-12-28T03:39:07.417Z,3.58
2017-12-28T03:40:07.406Z,3.56
2017-12-28T03:41:07.213Z,3.55
2017-12-28T03:42:08.039Z,3.52
2017-12-28T03:43:07.411Z,3.55
2017-12-28T03:44:08.602Z,3.55
2017-12-28T03:45:07.350Z,3.55
2017-12-28T03:46:08.066Z,3.55
2017-12-28T03:47:08.088Z,3.54
2017-12-28T03:48:08.366Z,3.54
2017-12-28T03:49:08.119Z,3.54
2017-12-28T03:50:08.215Z,3.54
2017-12-28T03:51:08.298Z,3.52
2017-12-28T03:52:07.726Z,3.54
2017-12-28T03:53:07.728Z,3.54
2017-12-28T03:55:08.097Z,3.51
2017-12-28T03:56:09.312Z,3.51
2017-12-28T03:57:08.635Z,3.52
2017-12-28T03:58:08.006Z,3.51
2017-12-28T03:59:08.363Z,3.52
2017-12-28T04:00:08.588Z,3.51
2017-12-28T04:01:07.674Z,3.51
2017-12-28T04:02:07.766Z,3.51
2017-12-28T04:03:08.052Z,3.51
2017-12-28T04:04:07.708Z,3.49
2017-12-28T04:05:08.000Z,3.51
2017-12-28T04:06:08.129Z,3.49
2017-12-28T04:07:08.343Z,3.49
2017-12-28T04:08:08.341Z,3.48
2017-12-28T04:09:08.631Z,3.49
2017-12-28T04:10:08.797Z,3.48
2017-12-28T04:11:07.735Z,3.48
2017-12-28T04:12:07.915Z,3.48
2017-12-28T04:13:06.111Z,3.44
2017-12-28T04:14:07.516Z,3.48
2017-12-28T04:15:07.434Z,3.48
2017-12-28T04:16:07.270Z,3.46
2017-12-28T04:17:07.432Z,3.45
2017-12-28T04:18:08.156Z,3.46
2017-12-28T04:19:07.546Z,3.45
2017-12-28T04:20:07.807Z,3.44
2017-12-28T04:21:06.175Z,3.44
2017-12-28T04:22:07.717Z,3.44
2017-12-28T04:23:07.668Z,3.45
2017-12-28T04:24:07.942Z,3.45
2017-12-28T04:25:07.447Z,3.45
2017-12-28T04:26:07.851Z,3.45
2017-12-28T04:27:06.168Z,3.45
2017-12-28T04:28:06.067Z,3.45
2017-12-28T04:29:07.411Z,3.48
2017-12-28T04:30:07.986Z,3.48
2017-12-28T04:31:06.159Z,3.46
2017-12-28T04:32:07.596Z,3.46
2017-12-28T04:33:07.797Z,3.46
2017-12-28T04:34:05.959Z,3.46
2017-12-28T04:35:05.849Z,3.49
2017-12-28T04:36:06.092Z,3.46
2017-12-28T04:37:06.213Z,3.48
2017-12-28T04:38:06.101Z,3.49
2017-12-28T04:39:07.313Z,3.49
2017-12-28T04:40:07.221Z,3.48
2017-12-28T04:41:06.175Z,3.48
2017-12-28T04:42:07.529Z,3.51
2017-12-28T04:43:07.468Z,3.51
2017-12-28T04:44:07.260Z,3.49
2017-12-28T04:45:08.386Z,3.51
2017-12-28T04:46:08.304Z,3.52
2017-12-28T04:47:08.569Z,3.54
2017-12-28T04:48:08.068Z,3.54
2017-12-28T04:49:08.208Z,3.55
2017-12-28T04:50:08.520Z,3.56
2017-12-28T04:51:07.547Z,3.55
2017-12-28T04:52:07.515Z,3.56
2017-12-28T04:53:07.601Z,3.58
2017-12-28T04:54:07.740Z,3.58
2017-12-28T04:55:07.944Z,3.61
2017-12-28T04:56:08.178Z,3.59
2017-12-28T04:57:08.103Z,3.61
2017-12-28T04:58:08.532Z,3.63
2017-12-28T04:59:08.019Z,3.62
2017-12-28T05:00:08.394Z,3.63
2017-12-28T05:01:08.015Z,3.63
2017-12-28T05:02:08.315Z,3.63
2017-12-28T05:03:07.695Z,3.65
2017-12-28T05:04:08.032Z,3.63
2017-12-28T05:05:08.553Z,3.65
2017-12-28T05:06:07.688Z,3.65
2017-12-28T05:07:08.133Z,3.63
2017-12-28T05:08:08.337Z,3.66
2017-12-28T05:09:08.265Z,3.66
2017-12-28T05:10:07.189Z,3.67
2017-12-28T05:11:08.473Z,3.66
2017-12-28T05:12:07.650Z,3.67
2017-12-28T05:13:08.789Z,3.69
2017-12-28T05:14:08.101Z,3.67
2017-12-28T05:15:07.858Z,3.69
2017-12-28T05:16:08.441Z,3.66
2017-12-28T05:17:08.631Z,3.67
2017-12-28T05:18:07.572Z,3.66
2017-12-28T05:19:08.712Z,3.67
2017-12-28T05:20:06.995Z,3.67
2017-12-28T05:21:07.115Z,3.67
2017-12-28T05:22:07.234Z,3.66
2017-12-28T05:23:07.357Z,3.67
2017-12-28T05:24:07.521Z,3.66
2017-12-28T05:25:07.548Z,3.63
2017-12-28T05:26:07.779Z,3.67
2017-12-28T05:27:06.926Z,3.66
2017-12-28T05:28:06.962Z,3.66
2017-12-28T05:29:07.017Z,3.67
2017-12-28T05:30:07.007Z,3.66
2017-12-28T05:31:07.171Z,3.65
2017-12-28T05:32:07.473Z,3.66
2017-12-28T05:33:07.691Z,3.63
2017-12-28T05:34:06.716Z,3.66
2017-12-28T05:35:06.875Z,3.66
2017-12-28T05:36:07.219Z,3.63
2017-12-28T05:37:07.216Z,3.66
2017-12-28T05:38:07.325Z,3.65
2017-12-28T05:39:07.502Z,3.67
2017-12-28T05:40:06.736Z,3.65
2017-12-28T05:41:06.614Z,3.65
2017-12-28T05:42:07.735Z,3.66
2017-12-28T05:43:07.150Z,3.66
2017-12-28T05:44:07.340Z,3.66
2017-12-28T05:45:07.528Z,3.65
2017-12-28T05:46:07.699Z,3.65
2017-12-28T05:47:06.932Z,3.65
2017-12-28T05:48:06.949Z,3.65
2017-12-28T05:49:07.145Z,3.66
2017-12-28T05:50:07.270Z,3.67
2017-12-28T05:51:07.655Z,3.63
2017-12-28T05:52:06.613Z,3.67
2017-12-28T05:53:06.803Z,3.67
2017-12-28T05:54:07.026Z,3.63
2017-12-28T05:55:07.020Z,3.65
2017-12-28T05:56:07.245Z,3.66
2017-12-28T05:57:07.461Z,3.66
2017-12-28T05:58:07.680Z,3.65
2017-12-28T05:59:06.889Z,3.66
2017-12-28T06:00:06.954Z,3.65
2017-12-28T06:01:07.050Z,3.66
2017-12-28T06:02:06.966Z,3.65
2017-12-28T06:03:07.052Z,3.63
2017-12-28T06:04:06.958Z,3.65
2017-12-28T06:05:07.221Z,3.63
2017-12-28T06:06:06.763Z,3.61
2017-12-28T06:07:06.728Z,3.63
2017-12-28T06:08:07.021Z,3.63
2017-12-28T06:09:07.231Z,3.59
2017-12-28T06:10:07.448Z,3.61
2017-12-28T06:11:07.436Z,3.59
2017-12-28T06:12:07.420Z,3.58
2017-12-28T06:13:07.365Z,3.59
2017-12-28T06:14:06.559Z,3.61
2017-12-28T06:15:06.633Z,3.59
2017-12-28T06:16:06.872Z,3.59
2017-12-28T06:17:06.877Z,3.61
2017-12-28T06:18:06.904Z,3.59
2017-12-28T06:19:06.958Z,3.58
2017-12-28T06:20:07.143Z,3.58
2017-12-28T06:21:07.456Z,3.56
2017-12-28T06:22:06.415Z,3.58
2017-12-28T06:23:06.486Z,3.58
2017-12-28T06:24:06.656Z,3.58
2017-12-28T06:25:06.626Z,3.58
2017-12-28T06:26:06.674Z,3.55
2017-12-28T06:27:06.611Z,3.55
2017-12-28T06:28:06.863Z,3.52
2017-12-28T06:29:06.973Z,3.54
2017-12-28T06:30:07.148Z,3.55
2017-12-28T06:31:07.165Z,3.54
2017-12-28T06:32:07.162Z,3.52
2017-12-28T06:33:07.084Z,3.54
2017-12-28T06:34:06.737Z,3.55
2017-12-28T06:37:07.517Z,3.52
2017-12-28T06:38:07.510Z,3.54
2017-12-28T06:39:07.142Z,3.51
2017-12-28T06:40:06.969Z,3.54
2017-12-28T06:41:06.407Z,3.54
2017-12-28T06:42:06.471Z,3.52
2017-12-28T06:43:06.444Z,3.51
2017-12-28T06:44:06.686Z,3.51
2017-12-28T06:45:06.684Z,3.51
2017-12-28T06:46:06.768Z,3.51
2017-12-28T06:48:10.855Z,3.51
2017-12-28T06:49:06.930Z,3.51
2017-12-28T06:50:07.069Z,3.49
2017-12-28T06:51:06.900Z,3.49
2017-12-28T06:52:06.806Z,3.46
2017-12-28T06:53:06.708Z,3.44
2017-12-28T06:54:06.676Z,3.46
2017-12-28T06:55:06.538Z,3.48
2017-12-28T06:56:06.595Z,3.48
2017-12-28T06:57:06.628Z,3.45
2017-12-28T06:58:06.589Z,3.42
2017-12-28T06:59:06.580Z,3.45
2017-12-28T07:00:06.577Z,3.44
2017-12-28T07:01:07.508Z,3.45
2017-12-28T07:02:07.295Z,3.42
2017-12-28T07:03:07.467Z,3.41
2017-12-28T07:04:06.618Z,3.42
2017-12-28T07:05:06.691Z,3.44
2017-12-28T07:06:06.912Z,3.44
2017-12-28T07:07:06.869Z,3.44
2017-12-28T07:08:06.870Z,3.41
2017-12-28T07:09:06.930Z,3.44
2017-12-28T07:10:06.789Z,3.44
2017-12-28T07:11:06.921Z,3.42
2017-12-28T07:12:07.085Z,3.44
2017-12-28T07:13:07.063Z,3.42
2017-12-28T07:14:06.587Z,3.41
2017-12-28T07:15:07.375Z,3.41
2017-12-28T07:16:07.396Z,3.45
2017-12-28T07:17:07.112Z,3.44
2017-12-28T07:18:06.713Z,3.44
2017-12-28T07:19:06.879Z,3.45
2017-12-28T07:20:07.174Z,3.42
2017-12-28T07:21:07.925Z,3.42
2017-12-28T07:22:07.167Z,3.45
2017-12-28T07:23:07.506Z,3.44
2017-12-28T07:24:06.913Z,3.42
2017-12-28T07:25:06.873Z,3.44
2017-12-28T07:26:07.007Z,3.44
2017-12-28T07:27:07.014Z,3.44
2017-12-28T07:28:07.267Z,3.44
2017-12-28T07:29:06.981Z,3.42
2017-12-28T07:30:07.452Z,3.42
2017-12-28T07:31:07.526Z,3.42
2017-12-28T07:32:07.500Z,3.45
2017-12-28T07:33:07.229Z,3.39
2017-12-28T07:34:06.983Z,3.41
2017-12-28T07:35:07.716Z,3.39
2017-12-28T07:36:07.337Z,3.41
2017-12-28T07:37:07.545Z,3.41
2017-12-28T07:38:07.444Z,3.41
2017-12-28T07:39:07.501Z,3.38
2017-12-28T07:40:07.707Z,3.39
2017-12-28T07:41:06.899Z,3.41
2017-12-28T07:42:07.137Z,3.38
2017-12-28T07:43:07.123Z,3.37
2017-12-28T07:44:07.333Z,3.39
2017-12-28T07:45:06.475Z,3.41
2017-12-28T07:46:06.268Z,3.38
2017-12-28T07:47:06.414Z,3.38
2017-12-28T07:48:06.401Z,3.39
2017-12-28T07:49:06.597Z,3.39
2017-12-28T07:50:06.673Z,3.38
2017-12-28T07:51:06.699Z,3.41
2017-12-28T07:52:06.682Z,3.39
2017-12-28T07:53:06.909Z,3.41
2017-12-28T07:54:06.864Z,3.41
2017-12-28T07:55:07.023Z,3.42
2017-12-28T07:56:06.165Z,3.42
2017-12-28T07:57:06.399Z,3.42
2017-12-28T07:58:06.601Z,3.44
2017-12-28T07:59:06.602Z,3.42
2017-12-28T08:00:06.907Z,3.45
2017-12-28T08:01:06.914Z,3.44
2017-12-28T08:02:05.936Z,3.46
2017-12-28T08:03:07.123Z,3.45
2017-12-28T08:04:06.754Z,3.45
2017-12-28T08:05:06.960Z,3.46
2017-12-28T08:06:06.747Z,3.48
2017-12-28T08:07:06.910Z,3.45
2017-12-28T08:08:05.954Z,3.48
2017-12-28T08:09:06.898Z,3.49
2017-12-28T08:10:06.044Z,3.46
2017-12-28T08:11:06.011Z,3.46
2017-12-28T08:12:05.932Z,3.48
2017-12-28T08:13:06.795Z,3.45
2017-12-28T08:14:06.639Z,3.44
2017-12-28T08:15:06.708Z,3.42
2017-12-28T08:16:06.540Z,3.45
2017-12-28T08:17:07.741Z,3.41
2017-12-28T08:18:07.389Z,3.42
2017-12-28T08:19:07.381Z,3.42
2017-12-28T08:20:07.190Z,3.42
2017-12-28T08:21:06.993Z,3.45
2017-12-28T08:22:06.817Z,3.44
2017-12-28T08:23:06.782Z,3.46
2017-12-28T08:24:06.910Z,3.44
2017-12-28T08:25:07.008Z,3.48
2017-12-28T08:26:07.167Z,3.49
2017-12-28T08:27:07.325Z,3.49
2017-12-28T08:28:07.373Z,3.49
2017-12-28T08:29:07.567Z,3.51
2017-12-28T08:30:07.240Z,3.52
2017-12-28T08:31:07.423Z,3.52
2017-12-28T08:32:07.474Z,3.54
2017-12-28T08:33:08.025Z,3.55
2017-12-28T08:34:07.661Z,3.55
2017-12-28T08:35:07.434Z,3.56
2017-12-28T08:36:06.604Z,3.56
2017-12-28T08:37:07.569Z,3.58
2017-12-28T08:38:06.715Z,3.56
2017-12-28T08:39:07.646Z,3.56
2017-12-28T08:40:07.042Z,3.58
2017-12-28T08:41:06.757Z,3.55
2017-12-28T08:42:06.770Z,3.56
2017-12-28T08:43:07.308Z,3.56
2017-12-28T08:44:07.324Z,3.56
2017-12-28T08:45:07.344Z,3.55
2017-12-28T08:46:07.007Z,3.56
2017-12-28T08:47:07.353Z,3.55
2017-12-28T08:48:06.956Z,3.55
2017-12-28T08:49:07.058Z,3.56
2017-12-28T08:50:07.167Z,3.55
2017-12-28T08:51:07.177Z,3.58
2017-12-28T08:52:07.174Z,3.56
2017-12-28T08:53:07.089Z,3.58
2017-12-28T08:54:07.275Z,3.58
2017-12-28T08:55:07.259Z,3.54
2017-12-28T08:56:06.365Z,3.56
2017-12-28T08:57:07.183Z,3.56
2017-12-28T08:58:06.316Z,3.55
2017-12-28T08:59:06.254Z,3.58
2017-12-28T09:00:07.243Z,3.56
2017-12-28T09:01:06.465Z,3.56
2017-12-28T09:02:06.506Z,3.58
2017-12-28T09:03:06.724Z,3.58
2017-12-28T09:04:07.084Z,3.56
2017-12-28T09:05:07.188Z,3.59
2017-12-28T09:06:07.350Z,3.59
2017-12-28T09:07:06.574Z,3.59
2017-12-28T09:08:06.671Z,3.61
2017-12-28T09:09:07.014Z,3.62
2017-12-28T09:10:07.023Z,3.61
2017-12-28T09:11:07.410Z,3.59
2017-12-28T09:12:06.346Z,3.61
2017-12-28T09:13:07.424Z,3.58
2017-12-28T09:14:06.488Z,3.61
2017-12-28T09:15:06.486Z,3.59
2017-12-28T09:16:07.722Z,3.59
2017-12-28T09:17:05.904Z,3.59
2017-12-28T09:18:06.874Z,3.58
2017-12-28T09:19:05.896Z,3.59
2017-12-28T09:20:06.682Z,3.59
2017-12-28T09:21:06.715Z,3.59
2017-12-28T09:22:06.774Z,3.61
2017-12-28T09:23:06.840Z,3.61
2017-12-28T09:24:06.041Z,3.61
2017-12-28T09:25:06.159Z,3.59
2017-12-28T09:26:06.259Z,3.61
2017-12-28T09:27:06.660Z,3.61
2017-12-28T09:28:06.404Z,3.59
2017-12-28T09:29:06.294Z,3.62
2017-12-28T09:30:06.244Z,3.63
2017-12-28T09:31:06.136Z,3.62
2017-12-28T09:32:06.192Z,3.65
2017-12-28T09:33:06.234Z,3.67
2017-12-28T09:34:06.324Z,3.66
2017-12-28T09:35:06.467Z,3.67
2017-12-28T09:36:06.770Z,3.69
2017-12-28T09:37:06.779Z,3.7
2017-12-28T09:38:06.803Z,3.7
2017-12-28T09:39:06.935Z,3.72
2017-12-28T09:40:06.736Z,3.73
2017-12-28T09:41:06.838Z,3.73
2017-12-28T09:42:07.073Z,3.74
2017-12-28T09:43:06.654Z,3.77
2017-12-28T09:44:06.912Z,3.77
2017-12-28T09:45:06.436Z,3.77
2017-12-28T09:46:06.547Z,3.79
2017-12-28T09:47:06.587Z,3.83
2017-12-28T09:48:07.533Z,3.83
2017-12-28T09:49:07.532Z,3.84
2017-12-28T09:50:07.737Z,3.86
2017-12-28T09:51:07.112Z,3.89
2017-12-28T09:52:07.322Z,3.9
2017-12-28T09:53:07.607Z,3.93
2017-12-28T09:54:07.020Z,3.93
2017-12-28T09:55:01.868Z,3.94
2017-12-28T09:56:02.249Z,3.97
2017-12-28T09:57:02.321Z,3.98
2017-12-28T09:58:02.384Z,4.01
2017-12-28T09:59:02.519Z,4.02
2017-12-28T10:00:02.581Z,4.02
2017-12-28T10:01:01.982Z,4.04
2017-12-28T10:02:02.092Z,4.04
2017-12-28T10:03:03.825Z,4.05
2017-12-28T10:04:02.709Z,4.05
2017-12-28T10:05:03.328Z,4.05
2017-12-28T10:06:03.510Z,4.05
2017-12-28T10:07:02.273Z,4.05
2017-12-28T10:08:02.319Z,4.02
2017-12-28T10:09:02.372Z,4.07
2017-12-28T10:10:02.414Z,4.04
2017-12-28T10:11:06.170Z,4.08
2017-12-28T10:12:02.574Z,4.07
2017-12-28T10:13:01.789Z,4.08
2017-12-28T10:14:04.616Z,4.08
2017-12-28T10:15:02.724Z,4.11
2017-12-28T10:16:03.371Z,4.1
2017-12-28T10:17:02.443Z,4.1
2017-12-28T10:18:02.542Z,4.1
2017-12-28T10:19:02.559Z,4.1
2017-12-28T10:20:02.182Z,4.1
2017-12-28T10:21:02.126Z,4.1
2017-12-28T10:22:02.203Z,4.08
2017-12-28T10:23:02.493Z,4.11
2017-12-28T10:24:01.881Z,4.1
2017-12-28T10:25:01.928Z,4.08
2017-12-28T10:26:01.072Z,4.1
2017-12-28T10:27:01.029Z,4.1
2017-12-28T10:28:01.199Z,4.11
2017-12-28T10:29:01.240Z,4.1
2017-12-28T10:30:01.495Z,4.1
2017-12-28T10:31:01.475Z,4.08
2017-12-28T10:32:01.495Z,4.08
2017-12-28T10:33:01.533Z,4.1
2017-12-28T10:34:01.907Z,4.1
2017-12-28T10:35:01.068Z,4.11
2017-12-28T10:36:01.189Z,4.1
2017-12-28T10:37:01.405Z,4.14
2017-12-28T10:38:01.322Z,4.14
2017-12-28T10:39:01.613Z,4.12
2017-12-28T10:40:01.904Z,4.14
2017-12-28T10:41:00.933Z,4.15
2017-12-28T10:42:01.128Z,4.17
2017-12-28T10:43:01.175Z,4.18
2017-12-28T10:44:01.190Z,4.19
2017-12-28T10:45:01.272Z,4.19
2017-12-28T10:46:01.784Z,4.21
2017-12-28T10:47:01.102Z,4.21
2017-12-28T10:48:01.098Z,4.24
2017-12-28T10:49:01.174Z,4.22
2017-12-28T10:50:01.565Z,4.24
2017-12-28T10:51:01.824Z,4.22
2017-12-28T10:52:02.317Z,4.25
2017-12-28T10:53:01.079Z,4.25
2017-12-28T10:54:01.437Z,4.25
2017-12-28T10:55:02.876Z,4.24
2017-12-28T10:56:03.050Z,4.25
2017-12-28T10:57:02.536Z,4.26
2017-12-28T10:58:02.563Z,4.28
2017-12-28T10:59:02.593Z,4.26
2017-12-28T11:00:03.099Z,4.28
2017-12-28T11:01:02.459Z,4.28
2017-12-28T11:02:02.540Z,4.3
2017-12-28T11:03:02.648Z,4.29
2017-12-28T11:04:01.717Z,4.28
2017-12-28T11:05:01.843Z,4.3
2017-12-28T11:06:02.149Z,4.29
2017-12-28T11:07:02.187Z,4.29
2017-12-28T11:08:02.143Z,4.26
2017-12-28T11:09:02.167Z,4.29
2017-12-28T11:10:02.561Z,4.29
2017-12-28T11:11:03.880Z,4.29
2017-12-28T11:12:02.331Z,4.29
2017-12-28T11:13:02.657Z,4.29
2017-12-28T11:14:01.921Z,4.3
2017-12-28T11:15:01.966Z,4.3
2017-12-28T11:16:02.225Z,4.3
2017-12-28T11:17:02.305Z,4.32
2017-12-28T11:18:02.549Z,4.3
2017-12-28T11:19:02.653Z,4.3
2017-12-28T11:20:01.778Z,4.29
2017-12-28T11:21:02.620Z,4.29
2017-12-28T11:22:02.634Z,4.26
2017-12-28T11:23:01.909Z,4.28
2017-12-28T11:24:01.672Z,4.28
2017-12-28T11:25:02.649Z,4.26
2017-12-28T11:26:01.961Z,4.28
2017-12-28T11:27:01.149Z,4.28
2017-12-28T11:28:01.484Z,4.26
2017-12-28T11:29:01.369Z,4.28
2017-12-28T11:30:01.545Z,4.29
2017-12-28T11:31:01.628Z,4.28
2017-12-28T11:32:01.749Z,4.26
2017-12-28T11:33:01.109Z,4.25
2017-12-28T11:34:01.254Z,4.26
2017-12-28T11:35:01.729Z,4.26
2017-12-28T11:36:01.120Z,4.25
2017-12-28T11:37:00.978Z,4.25
2017-12-28T11:38:01.313Z,4.25
2017-12-28T11:39:01.705Z,4.25
2017-12-28T11:40:01.103Z,4.25
2017-12-28T11:41:01.564Z,4.25
2017-12-28T11:42:01.942Z,4.24
2017-12-28T11:43:01.567Z,4.22
2017-12-28T11:44:01.859Z,4.22
2017-12-28T11:45:01.197Z,4.21
2017-12-28T11:46:01.514Z,4.22
2017-12-28T11:47:01.127Z,4.19
2017-12-28T11:48:01.868Z,4.18
2017-12-28T11:49:01.291Z,4.19
2017-12-28T11:50:01.774Z,4.18
2017-12-28T11:51:01.148Z,4.17
2017-12-28T11:52:01.437Z,4.15
2017-12-28T11:53:01.591Z,4.15
2017-12-28T11:54:01.750Z,4.15
2017-12-28T11:55:01.152Z,4.12
2017-12-28T11:56:01.559Z,4.1
2017-12-28T11:57:01.124Z,4.11
2017-12-28T11:58:01.392Z,4.08
2017-12-28T11:59:01.985Z,4.07
2017-12-28T12:00:01.237Z,4.05
2017-12-28T12:01:01.962Z,4.05
2017-12-28T12:02:01.658Z,4.04
2017-12-28T12:03:02.097Z,4.04
2017-12-28T12:04:01.483Z,4.02
2017-12-28T12:05:01.726Z,4.01
2017-12-28T12:06:01.154Z,4
2017-12-28T12:07:01.444Z,3.98
2017-12-28T12:08:01.933Z,3.98
2017-12-28T12:09:01.319Z,3.98
2017-12-28T12:10:01.684Z,3.94
2017-12-28T12:11:01.077Z,3.96
2017-12-28T12:12:01.548Z,3.94
2017-12-28T12:13:01.048Z,3.93
2017-12-28T12:14:01.192Z,3.93
2017-12-28T12:15:01.802Z,3.93
2017-12-28T12:16:01.477Z,3.91
2017-12-28T12:17:01.799Z,3.91
2017-12-28T12:18:01.280Z,3.91
2017-12-28T12:19:01.529Z,3.91
2017-12-28T12:20:02.432Z,3.91
2017-12-28T12:21:01.923Z,3.9
2017-12-28T12:22:01.283Z,3.91
2017-12-28T12:23:01.884Z,3.89
2017-12-28T12:24:01.250Z,3.9
2017-12-28T12:25:01.982Z,3.89
2017-12-28T12:26:01.530Z,3.87
2017-12-28T12:27:02.132Z,3.89
2017-12-28T12:28:01.692Z,3.9
2017-12-28T12:29:01.077Z,3.89
2017-12-28T12:30:01.577Z,3.9
2017-12-28T12:31:02.247Z,3.9
2017-12-28T12:32:01.625Z,3.9
2017-12-28T12:33:02.259Z,3.91
2017-12-28T12:34:01.571Z,3.9
2017-12-28T12:35:01.952Z,3.91
2017-12-28T12:36:01.516Z,3.9
2017-12-28T12:37:02.058Z,3.9
2017-12-28T12:38:01.402Z,3.9
2017-12-28T12:39:01.701Z,3.91
2017-12-28T12:40:01.225Z,3.91
2017-12-28T12:41:03.966Z,3.93
2017-12-28T12:42:04.416Z,3.9
2017-12-28T12:43:01.022Z,3.93
2017-12-28T12:44:01.612Z,3.93
2017-12-28T12:45:02.131Z,3.94
2017-12-28T12:46:01.627Z,3.97
2017-12-28T12:47:01.862Z,3.94
2017-12-28T12:48:00.999Z,3.96
2017-12-28T12:49:01.227Z,3.96
2017-12-28T12:50:02.034Z,3.98
2017-12-28T12:51:01.321Z,3.94
2017-12-28T12:52:01.576Z,3.97
2017-12-28T12:53:01.005Z,3.97
2017-12-28T12:54:01.279Z,3.97
2017-12-28T12:55:01.784Z,3.96
2017-12-28T12:56:01.399Z,3.97
2017-12-28T12:57:01.804Z,3.96
2017-12-28T12:58:01.395Z,3.97
2017-12-28T12:59:01.940Z,3.97
2017-12-28T13:00:01.294Z,3.97
2017-12-28T13:01:01.561Z,4
2017-12-28T13:02:01.501Z,3.98
2017-12-28T13:03:01.508Z,4
2017-12-28T13:04:01.733Z,4
2017-12-28T13:05:01.612Z,3.98
2017-12-28T13:06:01.513Z,3.97
2017-12-28T13:07:01.433Z,3.98
2017-12-28T13:08:01.466Z,3.98
2017-12-28T13:09:01.233Z,3.98
2017-12-28T13:10:01.205Z,3.98
2017-12-28T13:11:01.259Z,3.98
2017-12-28T13:12:01.341Z,3.98
2017-12-28T13:13:01.400Z,3.96
2017-12-28T13:14:01.432Z,4.01
2017-12-28T13:15:01.455Z,4
2017-12-28T13:16:01.441Z,3.98
2017-12-28T13:17:01.246Z,3.98
2017-12-28T13:18:01.174Z,4.01
2017-12-28T13:19:01.063Z,4.01
2017-12-28T13:20:01.225Z,4.02
2017-12-28T13:21:01.509Z,4.01
2017-12-28T13:22:01.435Z,4.02
2017-12-28T13:23:01.328Z,4.04
2017-12-28T13:24:01.381Z,4.04
2017-12-28T13:25:01.506Z,4.01
2017-12-28T13:26:01.326Z,4.02
2017-12-28T13:27:01.271Z,4.04